createdAt,value
2023-05-15T00:02:43.836Z,80.03
2023-05-15T00:07:45.506Z,79.93
2023-05-15T00:12:47.068Z,80.10
2023-05-15T00:17:48.627Z,80.35
2023-05-15T00:22:50.328Z,80.65
2023-05-15T00:27:51.860Z,81.77
2023-05-15T00:32:53.520Z,81.50
2023-05-15T00:37:55.076Z,81.93
2023-05-15T00:42:56.805Z,81.09
2023-05-15T00:47:59.252Z,80.46
2023-05-15T00:53:00.888Z,79.66
2023-05-15T00:58:03.349Z,79.72
2023-05-15T01:03:06.751Z,79.37
2023-05-15T01:08:19.607Z,79.52
2023-05-15T01:13:22.887Z,79.29
2023-05-15T01:18:25.984Z,79.65
2023-05-15T01:23:38.688Z,78.96
2023-05-15T01:28:43.617Z,78.77
2023-05-15T01:33:47.728Z,78.28
2023-05-15T01:38:55.839Z,77.35
2023-05-15T01:44:21.005Z,77.66
2023-05-15T01:49:26.240Z,78.44
2023-05-15T01:54:29.058Z,81.09
2023-05-15T01:59:30.875Z,80.86
2023-05-15T02:04:33.471Z,81.20
2023-05-15T02:09:35.237Z,80.16
2023-05-15T02:14:37.407Z,80.11
2023-05-15T02:19:38.980Z,81.09
2023-05-15T02:24:40.701Z,80.99
2023-05-15T02:30:01.073Z,81.20
2023-05-15T02:35:08.466Z,81.45
2023-05-15T02:40:11.414Z,82.48
2023-05-15T02:45:14.072Z,83.11
2023-05-15T02:50:15.817Z,83.01
2023-05-15T02:55:17.431Z,82.65
2023-05-15T03:00:19.397Z,84.21
2023-05-15T03:05:21.226Z,83.88
2023-05-15T03:10:24.256Z,83.13
2023-05-15T03:15:26.136Z,84.44
2023-05-15T03:20:28.080Z,84.61
2023-05-15T03:25:29.730Z,83.66
2023-05-15T03:30:31.362Z,84.04
2023-05-15T03:35:32.923Z,83.88
2023-05-15T03:40:34.493Z,83.96
2023-05-15T03:45:36.296Z,83.76
2023-05-15T03:50:39.146Z,83.14
2023-05-15T03:55:40.847Z,83.24
2023-05-15T04:00:42.469Z,83.92
2023-05-15T04:05:44.378Z,82.79
2023-05-15T04:10:46.001Z,82.99
2023-05-15T04:15:48.709Z,82.03
2023-05-15T04:20:50.580Z,83.34
2023-05-15T04:25:53.716Z,82.86
2023-05-15T04:30:55.271Z,82.76
2023-05-15T04:35:56.947Z,83.90
2023-05-15T04:40:58.564Z,83.74
2023-05-15T04:46:00.154Z,84.31
2023-05-15T04:51:01.772Z,85.16
2023-05-15T04:56:03.549Z,84.33
2023-05-15T05:01:05.220Z,84.87
2023-05-15T05:06:07.049Z,84.33
2023-05-15T05:11:08.645Z,84.09
2023-05-15T05:16:10.209Z,83.77
2023-05-15T05:21:11.798Z,83.78
2023-05-15T05:26:13.420Z,82.77
2023-05-15T05:31:15.196Z,82.61
2023-05-15T05:36:16.939Z,82.86
2023-05-15T05:41:18.772Z,81.57
2023-05-15T05:46:21.096Z,79.97
2023-05-15T05:51:22.867Z,79.68
2023-05-15T05:56:24.556Z,80.02
2023-05-15T06:01:26.943Z,78.75
2023-05-15T06:06:28.888Z,78.22
2023-05-15T06:11:30.538Z,78.90
2023-05-15T06:16:32.160Z,77.96
2023-05-15T06:21:34.100Z,78.19
2023-05-15T06:26:35.973Z,79.48
2023-05-15T06:31:37.561Z,78.34
2023-05-15T06:36:39.245Z,76.87
2023-05-15T06:41:40.811Z,77.41
2023-05-15T06:46:47.000Z,76.85
2023-05-15T06:51:48.585Z,76.85
2023-05-15T06:56:50.150Z,77.33
2023-05-15T07:01:51.785Z,75.74
2023-05-15T07:06:53.426Z,75.53
2023-05-15T07:11:55.012Z,74.88
2023-05-15T07:16:56.705Z,74.85
2023-05-15T07:21:58.423Z,73.25
2023-05-15T07:27:00.067Z,72.74
2023-05-15T07:32:01.711Z,72.55
2023-05-15T07:37:03.416Z,72.23
2023-05-15T07:42:05.211Z,70.92
2023-05-15T07:47:06.826Z,70.39
2023-05-15T07:52:08.463Z,71.92
2023-05-15T07:57:10.365Z,72.28
2023-05-15T08:02:11.954Z,71.25
2023-05-15T08:07:14.433Z,71.04
2023-05-15T08:12:17.969Z,71.75
2023-05-15T08:17:20.737Z,70.25
2023-05-15T08:22:22.554Z,69.65
2023-05-15T08:27:24.149Z,71.17
2023-05-15T08:32:26.703Z,71.67
2023-05-15T08:37:28.392Z,71.90
2023-05-15T08:42:37.790Z,71.60
2023-05-15T08:47:41.206Z,71.82
2023-05-15T08:52:45.677Z,71.24
2023-05-15T08:57:47.812Z,70.64
2023-05-15T09:02:49.576Z,70.64
2023-05-15T09:07:52.001Z,69.52
2023-05-15T09:12:53.555Z,69.75
2023-05-15T09:17:55.193Z,70.17
2023-05-15T09:22:57.772Z,68.20
2023-05-15T09:27:59.702Z,67.49
2023-05-15T09:33:03.709Z,66.82
2023-05-15T09:38:14.307Z,65.65
2023-05-15T09:43:16.315Z,65.92
2023-05-15T09:48:18.137Z,65.10
2023-05-15T09:53:21.835Z,64.56
2023-05-15T09:58:23.560Z,64.41
2023-05-15T10:03:25.346Z,63.09
2023-05-15T10:08:28.357Z,61.51
2023-05-15T10:13:31.894Z,59.68
2023-05-15T10:18:34.097Z,59.95
2023-05-15T10:23:36.726Z,60.13
2023-05-15T10:28:39.029Z,60.06
2023-05-15T10:33:41.211Z,59.37
2023-05-15T10:38:43.958Z,59.16
2023-05-15T10:43:45.941Z,59.50
2023-05-15T10:48:47.630Z,57.69
2023-05-15T10:53:49.286Z,57.01
2023-05-15T10:58:51.733Z,56.00
2023-05-15T11:04:14.222Z,55.46
2023-05-15T11:09:21.594Z,54.32
2023-05-15T11:14:27.517Z,53.89
2023-05-15T11:19:29.061Z,52.83
2023-05-15T11:24:31.836Z,52.46
2023-05-15T11:29:33.463Z,52.70
2023-05-15T11:34:35.721Z,51.74
2023-05-15T11:39:39.065Z,51.57
2023-05-15T11:44:40.748Z,54.37
2023-05-15T11:49:42.550Z,55.74
2023-05-15T11:54:44.312Z,56.34
2023-05-15T11:59:45.883Z,60.71
2023-05-15T12:04:49.773Z,63.92
2023-05-15T12:09:52.594Z,66.76
2023-05-15T12:14:58.437Z,70.65
2023-05-15T12:20:01.173Z,73.83
2023-05-15T12:25:02.784Z,74.23
2023-05-15T12:30:05.238Z,74.04
2023-05-15T12:35:07.055Z,73.86
2023-05-15T12:40:10.700Z,70.67
2023-05-15T12:45:16.444Z,71.39
2023-05-15T12:50:20.189Z,67.09
2023-05-15T12:55:26.202Z,69.19
2023-05-15T13:00:29.434Z,66.46
2023-05-15T13:05:35.440Z,65.21
2023-05-15T13:10:38.096Z,66.45
2023-05-15T13:15:42.667Z,65.16
2023-05-15T13:20:51.622Z,67.02
2023-05-15T13:25:53.179Z,71.52
2023-05-15T13:30:54.745Z,72.54
2023-05-15T13:35:57.264Z,75.07
2023-05-15T13:40:58.985Z,72.29
2023-05-15T13:46:00.685Z,68.02
2023-05-15T13:51:02.267Z,70.26
2023-05-15T13:56:03.922Z,73.68
2023-05-15T14:01:07.102Z,75.74
2023-05-15T14:06:09.202Z,76.69
2023-05-15T14:11:10.871Z,74.95
2023-05-15T14:16:12.456Z,75.36
2023-05-15T14:21:14.003Z,76.95
2023-05-15T14:26:15.631Z,75.80
2023-05-15T14:31:17.239Z,75.55
2023-05-15T14:36:18.899Z,75.15
2023-05-15T14:41:21.637Z,72.32
2023-05-15T14:46:23.358Z,67.94
2023-05-15T14:51:25.010Z,66.98
2023-05-15T14:56:26.581Z,65.84
2023-05-15T15:01:28.182Z,62.20
2023-05-15T15:06:29.800Z,61.29
2023-05-15T15:11:31.347Z,61.38
2023-05-15T15:16:33.551Z,61.80
2023-05-15T15:21:36.517Z,63.09
2023-05-15T15:26:38.105Z,63.09
2023-05-15T15:31:39.733Z,63.17
2023-05-15T15:36:41.499Z,63.67
2023-05-15T15:41:43.157Z,60.34
2023-05-15T15:46:45.916Z,61.22
2023-05-15T15:51:47.467Z,62.61
2023-05-15T15:56:49.272Z,64.50
2023-05-15T16:01:51.103Z,68.29
2023-05-15T16:06:52.713Z,73.35
2023-05-15T16:11:54.347Z,72.59
2023-05-15T16:16:56.057Z,73.73
2023-05-15T16:21:57.699Z,73.68
2023-05-15T16:26:59.293Z,76.41
2023-05-15T16:32:00.950Z,81.63
2023-05-15T16:37:03.543Z,81.31
2023-05-15T16:42:08.595Z,85.37
2023-05-15T16:47:11.075Z,84.87
2023-05-15T16:52:12.635Z,83.01
2023-05-15T16:57:14.190Z,87.56
2023-05-15T17:02:16.099Z,82.66
2023-05-15T17:07:17.935Z,81.04
2023-05-15T17:12:19.740Z,84.54
2023-05-15T17:17:23.114Z,85.07
2023-05-15T17:22:24.964Z,84.89
2023-05-15T17:27:26.626Z,85.34
2023-05-15T17:32:28.310Z,86.47
2023-05-15T17:37:30.037Z,86.16
2023-05-15T17:42:31.924Z,86.67
2023-05-15T17:47:33.556Z,91.18
2023-05-15T17:52:36.503Z,92.70
2023-05-15T17:57:38.205Z,90.21
2023-05-15T18:02:39.850Z,90.73
2023-05-15T18:07:42.398Z,88.91
2023-05-15T18:12:44.187Z,85.98
2023-05-15T18:17:46.356Z,88.86
2023-05-15T18:22:48.065Z,87.09
2023-05-15T18:27:49.636Z,85.71
2023-05-15T18:32:51.310Z,84.44
2023-05-15T18:37:52.914Z,84.85
2023-05-15T18:42:55.778Z,84.58
2023-05-15T18:47:57.386Z,86.23
2023-05-15T18:52:59.053Z,88.18
2023-05-15T18:58:00.766Z,88.27
2023-05-15T19:03:02.556Z,87.43
2023-05-15T19:08:04.480Z,87.94
2023-05-15T19:13:06.267Z,87.60
2023-05-15T19:18:08.984Z,88.97
2023-05-15T19:23:10.579Z,90.20
2023-05-15T19:28:12.976Z,89.85
2023-05-15T19:33:17.539Z,92.04
2023-05-15T19:38:19.214Z,91.15
2023-05-15T19:43:20.825Z,90.82
2023-05-15T19:48:22.401Z,91.41
2023-05-15T19:53:24.335Z,93.43
2023-05-15T19:58:26.012Z,93.45
2023-05-15T20:03:32.816Z,92.72
2023-05-15T20:08:34.791Z,96.49
2023-05-15T20:13:37.446Z,93.56
2023-05-15T20:18:39.952Z,94.38
2023-05-15T20:23:41.538Z,95.37
2023-05-15T20:28:45.226Z,94.54
2023-05-15T20:33:47.169Z,93.26
2023-05-15T20:38:50.562Z,94.05
2023-05-15T20:43:52.161Z,94.75
2023-05-15T20:48:53.878Z,95.51
2023-05-15T20:53:56.107Z,95.67
2023-05-15T20:58:59.758Z,95.79
2023-05-15T21:04:01.667Z,96.01
2023-05-15T21:09:03.405Z,96.35
2023-05-15T21:14:06.118Z,95.71
2023-05-15T21:19:07.831Z,93.09
2023-05-15T21:24:09.486Z,93.18
2023-05-15T21:29:11.266Z,90.45
2023-05-15T21:34:12.984Z,88.26
2023-05-15T21:39:15.292Z,85.62
2023-05-15T21:44:17.152Z,84.49
2023-05-15T21:49:18.822Z,84.93
2023-05-15T21:54:20.590Z,84.10
2023-05-15T21:59:22.219Z,83.88
2023-05-15T22:04:23.851Z,84.23
2023-05-15T22:09:25.414Z,83.60
2023-05-15T22:14:26.993Z,83.23
2023-05-15T22:19:33.121Z,81.62
2023-05-15T22:24:35.238Z,81.54
2023-05-15T22:29:36.838Z,81.05
2023-05-15T22:34:38.426Z,81.00
2023-05-15T22:39:40.095Z,81.72
2023-05-15T22:44:41.746Z,80.79
2023-05-15T22:49:43.309Z,79.90
2023-05-15T22:54:44.932Z,79.64
2023-05-15T22:59:46.713Z,79.87
2023-05-15T23:04:48.330Z,79.97
2023-05-15T23:09:49.940Z,80.57
2023-05-15T23:14:51.522Z,80.73
2023-05-15T23:19:53.118Z,80.51
2023-05-15T23:24:54.695Z,79.95
2023-05-15T23:29:56.310Z,79.90
2023-05-15T23:34:58.517Z,80.11
2023-05-15T23:40:00.092Z,80.58
2023-05-15T23:45:01.712Z,79.26
2023-05-15T23:50:03.656Z,79.94
2023-05-15T23:55:05.649Z,79.51
